sensor_id;sensor_type;location;lat;lon;timestamp;pressure;altitude;pressure_sealevel;temperature;humidity
47366;BME280;33105;47.964;7.982;2022-08-19T00:00:31;96417.28;;;16.55;94.99
47366;BME280;33105;47.964;7.982;2022-08-19T00:03:33;96411.75;;;16.55;94.83
47366;BME280;33105;47.964;7.982;2022-08-19T00:06:46;96414.91;;;16.62;94.98
47366;BME280;33105;47.964;7.982;2022-08-19T00:09:48;96414.69;;;16.59;95.00
47366;BME280;33105;47.964;7.982;2022-08-19T00:13:06;96403.66;;;16.59;94.92
47366;BME280;33105;47.964;7.982;2022-08-19T00:16:39;96407.69;;;16.53;94.67
47366;BME280;33105;47.964;7.982;2022-08-19T00:19:50;96401.44;;;16.47;95.08
47366;BME280;33105;47.964;7.982;2022-08-19T00:22:59;96408.69;;;16.57;95.12
47366;BME280;33105;47.964;7.982;2022-08-19T00:26:06;96402.16;;;16.53;94.95
47366;BME280;33105;47.964;7.982;2022-08-19T00:29:10;96400.31;;;16.48;94.78
47366;BME280;33105;47.964;7.982;2022-08-19T00:32:13;96407.88;;;16.56;95.17
47366;BME280;33105;47.964;7.982;2022-08-19T00:35:14;96408.78;;;16.52;94.85
47366;BME280;33105;47.964;7.982;2022-08-19T00:38:19;96403.69;;;16.45;94.48
47366;BME280;33105;47.964;7.982;2022-08-19T00:41:24;96414.09;;;16.48;94.81
47366;BME280;33105;47.964;7.982;2022-08-19T00:44:28;96416.47;;;16.55;94.88
47366;BME280;33105;47.964;7.982;2022-08-19T00:47:29;96400.94;;;16.45;94.72
47366;BME280;33105;47.964;7.982;2022-08-19T00:50:43;96404.94;;;16.25;94.43
47366;BME280;33105;47.964;7.982;2022-08-19T00:53:55;96406.84;;;16.39;95.00
47366;BME280;33105;47.964;7.982;2022-08-19T00:56:59;96398.06;;;16.37;94.53
47366;BME280;33105;47.964;7.982;2022-08-19T01:00:10;96401.03;;;16.40;94.75
47366;BME280;33105;47.964;7.982;2022-08-19T01:03:24;96410.03;;;16.46;94.90
47366;BME280;33105;47.964;7.982;2022-08-19T01:06:27;96409.41;;;16.49;95.04
47366;BME280;33105;47.964;7.982;2022-08-19T01:09:29;96406.44;;;16.45;94.96
47366;BME280;33105;47.964;7.982;2022-08-19T01:12:40;96407.88;;;16.43;94.92
47366;BME280;33105;47.964;7.982;2022-08-19T01:15:48;96404.50;;;16.46;94.94
47366;BME280;33105;47.964;7.982;2022-08-19T01:18:51;96402.16;;;16.53;94.92
47366;BME280;33105;47.964;7.982;2022-08-19T01:25:17;96408.06;;;16.60;95.21
47366;BME280;33105;47.964;7.982;2022-08-19T01:28:25;96407.97;;;16.65;95.13
47366;BME280;33105;47.964;7.982;2022-08-19T01:31:34;96396.94;;;16.51;94.80
47366;BME280;33105;47.964;7.982;2022-08-19T01:34:35;96395.38;;;16.59;95.01
47366;BME280;33105;47.964;7.982;2022-08-19T01:38:20;96397.38;;;16.31;93.79
47366;BME280;33105;47.964;7.982;2022-08-19T01:41:33;96395.41;;;16.45;95.08
47366;BME280;33105;47.964;7.982;2022-08-19T01:44:35;96382.84;;;16.53;95.21
47366;BME280;33105;47.964;7.982;2022-08-19T01:47:38;96386.28;;;16.58;95.27
47366;BME280;33105;47.964;7.982;2022-08-19T01:50:39;96385.09;;;16.64;95.14
47366;BME280;33105;47.964;7.982;2022-08-19T01:53:45;96380.16;;;16.61;94.87
47366;BME280;33105;47.964;7.982;2022-08-19T01:56:53;96384.69;;;16.57;94.77
47366;BME280;33105;47.964;7.982;2022-08-19T01:59:55;96388.97;;;16.63;94.88
47366;BME280;33105;47.964;7.982;2022-08-19T02:03:00;96387.88;;;16.51;94.33
47366;BME280;33105;47.964;7.982;2022-08-19T02:06:03;96381.72;;;16.54;94.85
47366;BME280;33105;47.964;7.982;2022-08-19T02:09:15;96384.78;;;16.52;94.70
47366;BME280;33105;47.964;7.982;2022-08-19T02:12:17;96381.94;;;16.44;94.85
47366;BME280;33105;47.964;7.982;2022-08-19T02:15:20;96385.03;;;16.28;94.62
47366;BME280;33105;47.964;7.982;2022-08-19T02:18:21;96375.03;;;16.32;95.09
47366;BME280;33105;47.964;7.982;2022-08-19T02:21:54;96372.75;;;16.34;94.99
47366;BME280;33105;47.964;7.982;2022-08-19T02:24:56;96382.16;;;16.47;95.19
47366;BME280;33105;47.964;7.982;2022-08-19T02:27:57;96383.38;;;16.41;94.93
47366;BME280;33105;47.964;7.982;2022-08-19T02:30:59;96374.19;;;16.46;95.05
47366;BME280;33105;47.964;7.982;2022-08-19T02:34:01;96378.38;;;16.57;95.51
47366;BME280;33105;47.964;7.982;2022-08-19T02:37:03;96378.84;;;16.59;95.01
47366;BME280;33105;47.964;7.982;2022-08-19T02:40:05;96364.97;;;16.64;95.00
47366;BME280;33105;47.964;7.982;2022-08-19T02:43:08;96374.66;;;16.61;94.84
47366;BME280;33105;47.964;7.982;2022-08-19T02:46:44;96367.03;;;16.45;94.10
47366;BME280;33105;47.964;7.982;2022-08-19T02:49:46;96368.75;;;16.54;94.69
47366;BME280;33105;47.964;7.982;2022-08-19T02:52:50;96367.34;;;16.57;94.93
47366;BME280;33105;47.964;7.982;2022-08-19T02:56:00;96365.25;;;16.62;94.96
47366;BME280;33105;47.964;7.982;2022-08-19T02:59:10;96379.09;;;16.49;94.89
47366;BME280;33105;47.964;7.982;2022-08-19T03:02:12;96379.19;;;16.57;95.07
47366;BME280;33105;47.964;7.982;2022-08-19T03:05:43;96380.41;;;16.51;94.09
47366;BME280;33105;47.964;7.982;2022-08-19T03:08:57;96388.56;;;16.56;95.08
47366;BME280;33105;47.964;7.982;2022-08-19T03:11:59;96388.44;;;16.61;94.92
47366;BME280;33105;47.964;7.982;2022-08-19T03:15:00;96398.78;;;16.70;95.07
47366;BME280;33105;47.964;7.982;2022-08-19T03:18:11;96394.38;;;16.69;94.89
47366;BME280;33105;47.964;7.982;2022-08-19T03:21:21;96396.41;;;16.63;94.80
47366;BME280;33105;47.964;7.982;2022-08-19T03:24:24;96399.91;;;16.69;94.60
47366;BME280;33105;47.964;7.982;2022-08-19T03:27:26;96393.25;;;16.70;95.03
47366;BME280;33105;47.964;7.982;2022-08-19T03:30:30;96391.00;;;16.72;95.01
47366;BME280;33105;47.964;7.982;2022-08-19T03:33:37;96393.97;;;16.75;95.14
47366;BME280;33105;47.964;7.982;2022-08-19T03:40:15;96407.16;;;16.64;94.42
47366;BME280;33105;47.964;7.982;2022-08-19T03:43:17;96414.50;;;16.69;94.89
47366;BME280;33105;47.964;7.982;2022-08-19T03:46:21;96415.75;;;16.77;94.95
47366;BME280;33105;47.964;7.982;2022-08-19T03:49:29;96412.16;;;16.76;94.86
47366;BME280;33105;47.964;7.982;2022-08-19T03:52:34;96418.19;;;16.78;94.99
47366;BME280;33105;47.964;7.982;2022-08-19T03:55:40;96424.38;;;16.84;94.87
47366;BME280;33105;47.964;7.982;2022-08-19T03:58:43;96431.78;;;16.75;94.47
47366;BME280;33105;47.964;7.982;2022-08-19T04:01:47;96423.09;;;16.67;94.47
47366;BME280;33105;47.964;7.982;2022-08-19T04:04:48;96427.19;;;16.70;94.96
47366;BME280;33105;47.964;7.982;2022-08-19T04:07:59;96434.22;;;16.76;95.01
47366;BME280;33105;47.964;7.982;2022-08-19T04:11:06;96438.13;;;16.75;94.54
47366;BME280;33105;47.964;7.982;2022-08-19T04:14:11;96433.09;;;16.77;94.70
47366;BME280;33105;47.964;7.982;2022-08-19T04:17:14;96434.03;;;16.73;94.76
47366;BME280;33105;47.964;7.982;2022-08-19T04:20:15;96424.31;;;16.75;94.93
47366;BME280;33105;47.964;7.982;2022-08-19T04:23:16;96422.78;;;16.69;94.57
47366;BME280;33105;47.964;7.982;2022-08-19T04:26:31;96428.91;;;16.66;94.66
47366;BME280;33105;47.964;7.982;2022-08-19T04:29:33;96419.09;;;16.74;94.87
47366;BME280;33105;47.964;7.982;2022-08-19T04:32:35;96418.19;;;16.64;94.99
47366;BME280;33105;47.964;7.982;2022-08-19T04:35:45;96420.66;;;16.66;94.81
47366;BME280;33105;47.964;7.982;2022-08-19T04:38:49;96418.50;;;16.77;94.89
47366;BME280;33105;47.964;7.982;2022-08-19T04:41:51;96417.06;;;16.79;94.91
47366;BME280;33105;47.964;7.982;2022-08-19T04:45:22;96419.50;;;16.81;94.89
47366;BME280;33105;47.964;7.982;2022-08-19T04:48:24;96427.97;;;16.84;95.01
47366;BME280;33105;47.964;7.982;2022-08-19T04:51:34;96422.13;;;16.86;94.82
47366;BME280;33105;47.964;7.982;2022-08-19T04:54:36;96430.09;;;16.87;94.81
47366;BME280;33105;47.964;7.982;2022-08-19T04:57:37;96431.22;;;16.86;94.92
47366;BME280;33105;47.964;7.982;2022-08-19T05:00:45;96444.03;;;16.82;94.36
47366;BME280;33105;47.964;7.982;2022-08-19T05:03:47;96447.72;;;16.78;94.41
47366;BME280;33105;47.964;7.982;2022-08-19T05:06:52;96442.72;;;16.80;94.66
47366;BME280;33105;47.964;7.982;2022-08-19T05:09:54;96456.72;;;16.70;94.76
47366;BME280;33105;47.964;7.982;2022-08-19T05:12:59;96460.19;;;16.75;94.94
47366;BME280;33105;47.964;7.982;2022-08-19T05:16:00;96459.84;;;16.63;94.25
47366;BME280;33105;47.964;7.982;2022-08-19T05:19:02;96460.69;;;16.77;94.92
47366;BME280;33105;47.964;7.982;2022-08-19T05:22:22;96467.84;;;16.78;94.54
47366;BME280;33105;47.964;7.982;2022-08-19T05:26:11;96469.47;;;16.79;94.68
47366;BME280;33105;47.964;7.982;2022-08-19T05:29:19;96465.47;;;16.85;94.39
47366;BME280;33105;47.964;7.982;2022-08-19T05:32:30;96459.44;;;16.83;94.09
47366;BME280;33105;47.964;7.982;2022-08-19T05:35:32;96460.53;;;16.96;94.81
47366;BME280;33105;47.964;7.982;2022-08-19T05:38:34;96457.19;;;16.99;94.60
47366;BME280;33105;47.964;7.982;2022-08-19T05:41:41;96464.03;;;17.02;94.40
47366;BME280;33105;47.964;7.982;2022-08-19T05:44:45;96471.78;;;16.99;94.45
47366;BME280;33105;47.964;7.982;2022-08-19T05:47:47;96470.03;;;17.04;94.30
47366;BME280;33105;47.964;7.982;2022-08-19T05:50:49;96471.03;;;17.08;94.24
47366;BME280;33105;47.964;7.982;2022-08-19T05:53:57;96477.41;;;16.94;93.79
47366;BME280;33105;47.964;7.982;2022-08-19T05:57:00;96492.22;;;16.98;94.33
47366;BME280;33105;47.964;7.982;2022-08-19T06:00:03;96492.00;;;17.09;94.34
47366;BME280;33105;47.964;7.982;2022-08-19T06:03:12;96484.72;;;17.13;94.36
47366;BME280;33105;47.964;7.982;2022-08-19T06:06:23;96479.81;;;17.10;93.89
47366;BME280;33105;47.964;7.982;2022-08-19T06:09:24;96485.13;;;17.20;94.15
47366;BME280;33105;47.964;7.982;2022-08-19T06:12:30;96475.63;;;17.12;93.82
47366;BME280;33105;47.964;7.982;2022-08-19T06:15:36;96498.72;;;17.16;94.24
47366;BME280;33105;47.964;7.982;2022-08-19T06:18:38;96498.31;;;17.23;94.32
47366;BME280;33105;47.964;7.982;2022-08-19T06:21:42;96508.13;;;17.29;93.86
47366;BME280;33105;47.964;7.982;2022-08-19T06:24:45;96506.69;;;17.18;93.95
47366;BME280;33105;47.964;7.982;2022-08-19T06:27:46;96502.91;;;17.14;93.83
47366;BME280;33105;47.964;7.982;2022-08-19T06:30:48;96508.56;;;17.09;93.86
47366;BME280;33105;47.964;7.982;2022-08-19T06:33:49;96508.25;;;17.10;94.11
47366;BME280;33105;47.964;7.982;2022-08-19T06:36:51;96510.94;;;17.02;93.66
47366;BME280;33105;47.964;7.982;2022-08-19T06:39:56;96507.13;;;17.11;93.96
47366;BME280;33105;47.964;7.982;2022-08-19T06:43:00;96502.19;;;17.22;94.11
47366;BME280;33105;47.964;7.982;2022-08-19T06:46:03;96507.59;;;17.27;94.49
47366;BME280;33105;47.964;7.982;2022-08-19T06:49:13;96499.97;;;17.10;93.73
47366;BME280;33105;47.964;7.982;2022-08-19T06:52:34;96508.34;;;17.19;93.72
47366;BME280;33105;47.964;7.982;2022-08-19T06:55:35;96498.72;;;17.16;93.51
47366;BME280;33105;47.964;7.982;2022-08-19T06:58:38;96504.03;;;17.26;93.76
47366;BME280;33105;47.964;7.982;2022-08-19T07:01:43;96503.78;;;17.37;93.74
47366;BME280;33105;47.964;7.982;2022-08-19T07:04:46;96502.44;;;17.48;93.53
47366;BME280;33105;47.964;7.982;2022-08-19T07:07:48;96498.03;;;17.47;93.31
47366;BME280;33105;47.964;7.982;2022-08-19T07:10:49;96501.81;;;17.51;93.41
47366;BME280;33105;47.964;7.982;2022-08-19T07:13:50;96509.09;;;17.33;92.89
47366;BME280;33105;47.964;7.982;2022-08-19T07:16:54;96509.78;;;17.52;92.52
47366;BME280;33105;47.964;7.982;2022-08-19T07:19:55;96519.41;;;17.55;93.18
47366;BME280;33105;47.964;7.982;2022-08-19T07:22:57;96520.22;;;17.55;93.18
47366;BME280;33105;47.964;7.982;2022-08-19T07:26:05;96517.44;;;17.55;93.26
47366;BME280;33105;47.964;7.982;2022-08-19T07:29:07;96508.81;;;17.71;93.13
47366;BME280;33105;47.964;7.982;2022-08-19T07:32:08;96519.28;;;17.24;92.50
47366;BME280;33105;47.964;7.982;2022-08-19T07:35:10;96520.41;;;17.23;93.06
47366;BME280;33105;47.964;7.982;2022-08-19T07:38:11;96531.38;;;17.50;93.67
47366;BME280;33105;47.964;7.982;2022-08-19T07:41:25;96524.38;;;17.17;93.22
47366;BME280;33105;47.964;7.982;2022-08-19T07:44:29;96524.84;;;17.46;93.51
47366;BME280;33105;47.964;7.982;2022-08-19T07:47:30;96529.63;;;17.54;93.37
47366;BME280;33105;47.964;7.982;2022-08-19T07:50:31;96532.19;;;17.51;93.36
47366;BME280;33105;47.964;7.982;2022-08-19T07:53:34;96530.75;;;17.53;93.19
47366;BME280;33105;47.964;7.982;2022-08-19T07:56:37;96531.44;;;17.59;93.04
47366;BME280;33105;47.964;7.982;2022-08-19T07:59:38;96539.72;;;17.59;92.68
47366;BME280;33105;47.964;7.982;2022-08-19T08:02:40;96542.59;;;17.67;92.85
47366;BME280;33105;47.964;7.982;2022-08-19T08:05:43;96542.97;;;17.75;92.83
47366;BME280;33105;47.964;7.982;2022-08-19T08:09:05;96547.88;;;17.64;92.50
47366;BME280;33105;47.964;7.982;2022-08-19T08:12:22;96543.41;;;17.68;92.69
47366;BME280;33105;47.964;7.982;2022-08-19T08:15:26;96543.22;;;17.87;92.75
47366;BME280;33105;47.964;7.982;2022-08-19T08:18:27;96560.00;;;17.90;92.50
47366;BME280;33105;47.964;7.982;2022-08-19T08:21:29;96559.28;;;17.85;92.32
47366;BME280;33105;47.964;7.982;2022-08-19T08:24:31;96561.81;;;17.73;92.20
47366;BME280;33105;47.964;7.982;2022-08-19T08:27:36;96568.97;;;17.74;92.34
47366;BME280;33105;47.964;7.982;2022-08-19T08:30:37;96564.28;;;17.74;92.57
47366;BME280;33105;47.964;7.982;2022-08-19T08:33:42;96565.38;;;17.59;92.22
47366;BME280;33105;47.964;7.982;2022-08-19T08:36:45;96567.66;;;17.57;92.19
47366;BME280;33105;47.964;7.982;2022-08-19T08:39:46;96564.56;;;17.73;92.71
47366;BME280;33105;47.964;7.982;2022-08-19T08:43:00;96569.09;;;17.68;91.38
47366;BME280;33105;47.964;7.982;2022-08-19T08:46:12;96584.47;;;17.83;91.50
47366;BME280;33105;47.964;7.982;2022-08-19T08:49:41;96582.84;;;17.82;91.41
47366;BME280;33105;47.964;7.982;2022-08-19T08:52:50;96583.03;;;17.86;91.70
47366;BME280;33105;47.964;7.982;2022-08-19T08:55:52;96587.00;;;17.93;91.68
47366;BME280;33105;47.964;7.982;2022-08-19T08:58:58;96581.66;;;17.75;90.68
47366;BME280;33105;47.964;7.982;2022-08-19T09:02:00;96585.56;;;17.96;91.76
47366;BME280;33105;47.964;7.982;2022-08-19T09:05:02;96593.66;;;17.92;91.41
47366;BME280;33105;47.964;7.982;2022-08-19T09:08:08;96598.38;;;17.92;90.89
47366;BME280;33105;47.964;7.982;2022-08-19T09:11:19;96596.53;;;17.87;90.10
47366;BME280;33105;47.964;7.982;2022-08-19T09:14:39;96603.78;;;17.97;90.79
47366;BME280;33105;47.964;7.982;2022-08-19T09:17:43;96602.34;;;17.77;89.28
47366;BME280;33105;47.964;7.982;2022-08-19T09:20:46;96612.59;;;18.21;91.20
47366;BME280;33105;47.964;7.982;2022-08-19T09:23:50;96610.97;;;18.20;91.03
47366;BME280;33105;47.964;7.982;2022-08-19T09:26:52;96604.81;;;18.23;91.02
47366;BME280;33105;47.964;7.982;2022-08-19T09:29:53;96615.69;;;18.20;90.94
47366;BME280;33105;47.964;7.982;2022-08-19T09:32:55;96619.88;;;17.95;90.32
47366;BME280;33105;47.964;7.982;2022-08-19T09:36:10;96619.63;;;18.05;90.55
47366;BME280;33105;47.964;7.982;2022-08-19T09:39:11;96611.09;;;18.15;91.57
47366;BME280;33105;47.964;7.982;2022-08-19T09:42:13;96619.75;;;18.00;90.57
47366;BME280;33105;47.964;7.982;2022-08-19T09:45:18;96620.50;;;17.92;90.49
47366;BME280;33105;47.964;7.982;2022-08-19T09:48:21;96620.66;;;17.73;90.32
47366;BME280;33105;47.964;7.982;2022-08-19T09:51:24;96629.41;;;18.11;91.14
47366;BME280;33105;47.964;7.982;2022-08-19T09:54:27;96621.63;;;18.13;90.96
47366;BME280;33105;47.964;7.982;2022-08-19T09:57:29;96626.59;;;18.02;89.15
47366;BME280;33105;47.964;7.982;2022-08-19T10:00:32;96625.41;;;18.17;88.60
47366;BME280;33105;47.964;7.982;2022-08-19T10:03:36;96628.16;;;18.40;88.89
47366;BME280;33105;47.964;7.982;2022-08-19T10:06:39;96627.44;;;18.25;88.17
47366;BME280;33105;47.964;7.982;2022-08-19T10:09:40;96634.84;;;18.16;86.47
47366;BME280;33105;47.964;7.982;2022-08-19T10:12:42;96633.91;;;18.21;87.56
47366;BME280;33105;47.964;7.982;2022-08-19T10:15:52;96629.72;;;18.10;87.11
47366;BME280;33105;47.964;7.982;2022-08-19T10:18:54;96632.56;;;18.18;87.65
47366;BME280;33105;47.964;7.982;2022-08-19T10:21:55;96634.59;;;18.26;89.13
47366;BME280;33105;47.964;7.982;2022-08-19T10:24:56;96622.66;;;18.17;86.53
47366;BME280;33105;47.964;7.982;2022-08-19T10:27:58;96629.25;;;18.30;88.49
47366;BME280;33105;47.964;7.982;2022-08-19T10:31:07;96623.66;;;18.21;89.08
47366;BME280;33105;47.964;7.982;2022-08-19T10:34:08;96628.44;;;18.29;90.08
47366;BME280;33105;47.964;7.982;2022-08-19T10:37:10;96619.63;;;18.27;87.49
47366;BME280;33105;47.964;7.982;2022-08-19T10:40:11;96627.56;;;18.20;88.37
47366;BME280;33105;47.964;7.982;2022-08-19T10:43:13;96632.06;;;18.16;89.64
47366;BME280;33105;47.964;7.982;2022-08-19T10:46:15;96631.28;;;17.80;87.94
47366;BME280;33105;47.964;7.982;2022-08-19T10:49:16;96625.16;;;18.05;89.45
47366;BME280;33105;47.964;7.982;2022-08-19T10:52:17;96637.16;;;18.23;87.55
47366;BME280;33105;47.964;7.982;2022-08-19T10:55:34;96641.00;;;18.35;87.51
47366;BME280;33105;47.964;7.982;2022-08-19T10:58:54;96638.34;;;18.75;86.77
47366;BME280;33105;47.964;7.982;2022-08-19T11:02:01;96636.81;;;18.91;86.67
47366;BME280;33105;47.964;7.982;2022-08-19T11:05:03;96633.72;;;18.93;87.06
47366;BME280;33105;47.964;7.982;2022-08-19T11:08:04;96634.44;;;19.07;85.40
47366;BME280;33105;47.964;7.982;2022-08-19T11:11:07;96632.03;;;19.14;86.12
47366;BME280;33105;47.964;7.982;2022-08-19T11:14:10;96636.50;;;19.41;86.13
47366;BME280;33105;47.964;7.982;2022-08-19T11:17:12;96629.84;;;19.42;85.41
47366;BME280;33105;47.964;7.982;2022-08-19T11:20:15;96629.84;;;19.42;85.72
47366;BME280;33105;47.964;7.982;2022-08-19T11:23:16;96637.78;;;19.35;84.87
47366;BME280;33105;47.964;7.982;2022-08-19T11:26:18;96629.09;;;19.50;85.45
47366;BME280;33105;47.964;7.982;2022-08-19T11:29:21;96635.63;;;19.54;84.93
47366;BME280;33105;47.964;7.982;2022-08-19T11:32:22;96642.50;;;19.74;84.42
47366;BME280;33105;47.964;7.982;2022-08-19T11:35:23;96632.56;;;19.99;84.76
47366;BME280;33105;47.964;7.982;2022-08-19T11:38:25;96632.06;;;20.14;82.47
47366;BME280;33105;47.964;7.982;2022-08-19T11:41:27;96637.13;;;20.12;78.46
47366;BME280;33105;47.964;7.982;2022-08-19T11:44:28;96636.34;;;20.03;81.47
47366;BME280;33105;47.964;7.982;2022-08-19T11:47:31;96630.13;;;20.06;83.35
47366;BME280;33105;47.964;7.982;2022-08-19T11:50:32;96626.38;;;20.02;82.94
47366;BME280;33105;47.964;7.982;2022-08-19T11:53:34;96621.34;;;20.04;83.42
47366;BME280;33105;47.964;7.982;2022-08-19T11:56:37;96622.63;;;19.98;83.18
47366;BME280;33105;47.964;7.982;2022-08-19T11:59:38;96632.06;;;19.88;82.51
47366;BME280;33105;47.964;7.982;2022-08-19T12:02:40;96637.97;;;20.04;85.35
47366;BME280;33105;47.964;7.982;2022-08-19T12:05:41;96634.03;;;19.88;84.08
47366;BME280;33105;47.964;7.982;2022-08-19T12:08:43;96636.78;;;19.88;83.68
47366;BME280;33105;47.964;7.982;2022-08-19T12:11:45;96629.81;;;19.99;84.58
47366;BME280;33105;47.964;7.982;2022-08-19T12:14:46;96622.44;;;19.86;84.27
47366;BME280;33105;47.964;7.982;2022-08-19T12:17:48;96626.03;;;19.78;83.22
47366;BME280;33105;47.964;7.982;2022-08-19T12:20:51;96623.59;;;20.02;82.67
47366;BME280;33105;47.964;7.982;2022-08-19T12:23:52;96628.00;;;20.20;82.12
47366;BME280;33105;47.964;7.982;2022-08-19T12:26:54;96624.25;;;19.99;81.16
47366;BME280;33105;47.964;7.982;2022-08-19T12:29:57;96617.91;;;20.42;81.54
47366;BME280;33105;47.964;7.982;2022-08-19T12:33:00;96626.19;;;20.33;80.95
47366;BME280;33105;47.964;7.982;2022-08-19T12:36:07;96630.09;;;20.66;78.89
47366;BME280;33105;47.964;7.982;2022-08-19T12:39:08;96637.97;;;20.38;79.88
47366;BME280;33105;47.964;7.982;2022-08-19T12:42:11;96630.13;;;20.49;78.30
47366;BME280;33105;47.964;7.982;2022-08-19T12:45:13;96625.56;;;20.27;77.64
47366;BME280;33105;47.964;7.982;2022-08-19T12:48:14;96616.81;;;20.89;78.77
47366;BME280;33105;47.964;7.982;2022-08-19T12:51:17;96625.38;;;20.67;78.66
47366;BME280;33105;47.964;7.982;2022-08-19T12:54:20;96614.16;;;20.37;79.04
47366;BME280;33105;47.964;7.982;2022-08-19T12:57:26;96618.06;;;20.28;77.46
47366;BME280;33105;47.964;7.982;2022-08-19T13:00:29;96613.44;;;20.66;79.44
47366;BME280;33105;47.964;7.982;2022-08-19T13:03:31;96614.47;;;20.53;80.67
47366;BME280;33105;47.964;7.982;2022-08-19T13:06:32;96614.25;;;20.67;76.58
47366;BME280;33105;47.964;7.982;2022-08-19T13:09:33;96612.00;;;21.07;77.20
47366;BME280;33105;47.964;7.982;2022-08-19T13:12:34;96614.91;;;20.73;75.81
47366;BME280;33105;47.964;7.982;2022-08-19T13:15:38;96610.59;;;20.92;77.74
47366;BME280;33105;47.964;7.982;2022-08-19T13:18:42;96613.06;;;20.85;76.40
47366;BME280;33105;47.964;7.982;2022-08-19T13:21:43;96608.16;;;20.91;77.25
47366;BME280;33105;47.964;7.982;2022-08-19T13:24:44;96601.69;;;20.69;77.42
47366;BME280;33105;47.964;7.982;2022-08-19T13:27:47;96605.78;;;20.63;79.64
47366;BME280;33105;47.964;7.982;2022-08-19T13:30:49;96602.56;;;20.44;78.87
47366;BME280;33105;47.964;7.982;2022-08-19T13:34:09;96595.22;;;20.48;78.15
47366;BME280;33105;47.964;7.982;2022-08-19T13:37:10;96593.44;;;20.90;76.10
47366;BME280;33105;47.964;7.982;2022-08-19T13:40:20;96581.41;;;21.16;68.30
47366;BME280;33105;47.964;7.982;2022-08-19T13:43:26;96589.31;;;21.43;73.71
47366;BME280;33105;47.964;7.982;2022-08-19T13:46:27;96590.41;;;21.13;74.06
47366;BME280;33105;47.964;7.982;2022-08-19T13:49:30;96592.00;;;20.84;75.28
47366;BME280;33105;47.964;7.982;2022-08-19T13:52:31;96591.50;;;21.29;75.06
47366;BME280;33105;47.964;7.982;2022-08-19T13:55:33;96580.03;;;21.30;72.02
47366;BME280;33105;47.964;7.982;2022-08-19T13:58:34;96582.91;;;21.72;71.93
47366;BME280;33105;47.964;7.982;2022-08-19T14:01:36;96592.63;;;21.57;73.55
47366;BME280;33105;47.964;7.982;2022-08-19T14:04:38;96589.44;;;22.18;63.77
47366;BME280;33105;47.964;7.982;2022-08-19T14:07:39;96586.19;;;22.16;65.19
47366;BME280;33105;47.964;7.982;2022-08-19T14:10:41;96593.88;;;21.68;70.32
47366;BME280;33105;47.964;7.982;2022-08-19T14:13:45;96603.88;;;21.69;69.37
47366;BME280;33105;47.964;7.982;2022-08-19T14:16:46;96590.91;;;21.53;67.72
47366;BME280;33105;47.964;7.982;2022-08-19T14:19:47;96596.78;;;21.51;66.60
47366;BME280;33105;47.964;7.982;2022-08-19T14:22:49;96595.53;;;21.69;70.69
47366;BME280;33105;47.964;7.982;2022-08-19T14:25:50;96595.25;;;21.83;72.30
47366;BME280;33105;47.964;7.982;2022-08-19T14:28:51;96591.44;;;21.67;72.12
47366;BME280;33105;47.964;7.982;2022-08-19T14:31:53;96592.38;;;21.12;66.80
47366;BME280;33105;47.964;7.982;2022-08-19T14:34:54;96601.59;;;21.33;71.58
47366;BME280;33105;47.964;7.982;2022-08-19T14:37:56;96592.66;;;21.28;72.43
47366;BME280;33105;47.964;7.982;2022-08-19T14:41:17;96595.88;;;20.92;72.48
47366;BME280;33105;47.964;7.982;2022-08-19T14:44:20;96593.91;;;21.01;71.57
47366;BME280;33105;47.964;7.982;2022-08-19T14:47:21;96594.34;;;21.12;71.02
47366;BME280;33105;47.964;7.982;2022-08-19T14:50:22;96604.72;;;20.94;72.51
47366;BME280;33105;47.964;7.982;2022-08-19T14:53:23;96605.88;;;20.84;72.02
47366;BME280;33105;47.964;7.982;2022-08-19T14:56:27;96614.47;;;20.53;72.27
47366;BME280;33105;47.964;7.982;2022-08-19T14:59:28;96601.72;;;20.52;75.56
47366;BME280;33105;47.964;7.982;2022-08-19T15:02:30;96612.16;;;20.55;73.31
47366;BME280;33105;47.964;7.982;2022-08-19T15:05:31;96611.47;;;20.67;72.16
47366;BME280;33105;47.964;7.982;2022-08-19T15:08:34;96611.56;;;20.96;70.69
47366;BME280;33105;47.964;7.982;2022-08-19T15:11:36;96617.63;;;20.90;69.43
47366;BME280;33105;47.964;7.982;2022-08-19T15:14:39;96625.47;;;20.88;71.11
47366;BME280;33105;47.964;7.982;2022-08-19T15:17:44;96623.34;;;20.85;67.57
47366;BME280;33105;47.964;7.982;2022-08-19T15:20:46;96632.47;;;20.94;70.01
47366;BME280;33105;47.964;7.982;2022-08-19T15:23:49;96630.75;;;20.72;66.52
47366;BME280;33105;47.964;7.982;2022-08-19T15:26:52;96629.69;;;20.94;67.34
47366;BME280;33105;47.964;7.982;2022-08-19T15:29:54;96631.19;;;20.91;68.33
47366;BME280;33105;47.964;7.982;2022-08-19T15:32:56;96624.38;;;21.18;69.60
47366;BME280;33105;47.964;7.982;2022-08-19T15:35:58;96630.41;;;21.29;71.60
47366;BME280;33105;47.964;7.982;2022-08-19T15:39:00;96624.94;;;21.03;68.79
47366;BME280;33105;47.964;7.982;2022-08-19T15:42:02;96622.75;;;21.17;68.99
47366;BME280;33105;47.964;7.982;2022-08-19T15:45:05;96622.41;;;21.19;67.29
47366;BME280;33105;47.964;7.982;2022-08-19T15:48:07;96618.09;;;21.38;71.54
47366;BME280;33105;47.964;7.982;2022-08-19T15:51:08;96624.38;;;21.18;68.70
47366;BME280;33105;47.964;7.982;2022-08-19T15:54:12;96626.81;;;21.20;67.74
47366;BME280;33105;47.964;7.982;2022-08-19T15:57:14;96623.25;;;21.11;68.57
47366;BME280;33105;47.964;7.982;2022-08-19T16:00:27;96624.31;;;20.97;73.68
47366;BME280;33105;47.964;7.982;2022-08-19T16:03:48;96623.38;;;20.76;72.57
47366;BME280;33105;47.964;7.982;2022-08-19T16:07:08;96623.78;;;20.49;74.92
47366;BME280;33105;47.964;7.982;2022-08-19T16:10:10;96619.66;;;20.55;72.63
47366;BME280;33105;47.964;7.982;2022-08-19T16:13:11;96625.41;;;20.50;75.77
47366;BME280;33105;47.964;7.982;2022-08-19T16:16:12;96624.88;;;20.30;76.30
47366;BME280;33105;47.964;7.982;2022-08-19T16:19:15;96623.94;;;20.18;76.55
47366;BME280;33105;47.964;7.982;2022-08-19T16:22:17;96618.88;;;20.02;78.86
47366;BME280;33105;47.964;7.982;2022-08-19T16:25:19;96626.38;;;20.02;79.62